Página principal
METAR-TAF:

METAR-TAF

Aeroportos :

Taiti, Polinésia Francesa

Aeroporto Internacional de Faa'a

latitude: 17-33S, longitude: 149-37W, altura: 2 m

Observação actual do tempo

O boletim foi feito há 4 horas e 15 minutos, às 00:30 UTC
Vento 12 kt de es-nordeste
Temperatura 30°C
Humidade 66%
Pressão 1013 hPa
Visibilidade 10 km ou mais
Poucas nuvensa uma altura de 2000 ft
Nuvens dispersasa uma altura de 5600 ft

METAR: NTAA 220030Z 07012KT 9999 FEW020 SCT056 30/23 Q1013 NOSIG

Hora: 18:45 (04:45 UTC)

Previsão

O boletim foi feito há 5 horas e 45 minutos, às 23:00 UTC
Previsão válida de 22 às 00 UTC a 23 às 06 UTC
Vento 15 kt de nor-nordeste
Visibilidade 10 km ou mais
Poucas nuvensa uma altura de 2300 ft
Tornando-se
de 22 às 03 UTC a 22 às 05 UTC
Vento 5 kt com direcção variável
Probabilidade 40% :
Temporariamente
de 22 às 19 UTC a 23 às 03 UTC
Vento 15 kt de nordeste

TAF: NTAA 212300Z 2200/2306 03015KT 9999 FEW023 BECMG 2203/2205 VRB05KT PROB40 TEMPO 2219/2303 04015KT

Observações e previsões do tempo de mais de 4000 aeroportos (mensagens METAR e TAF).

As estações disponíveis são os pontos amarelos e vermelhos sobre o mapa.

Mova o rato sobre o mapa para ver o nome da estação.

Depois clique no ponto para visualizar as observações e previsões meteorológicas.

Para alterar o mapa : clique nos botões verdes com uma cruz preta para aumentar o zoom; no botão verde com uma pitada de zoom; ou nas setas verdes para mapas adjacentes.


METAR-TAF: